This is the latest recevied weather packets stored in our database for station/object VE3EP-1. If no packets are shown the sender has not sent any weather packets the latest 10 day(s).
| Time | Temp. | Humidity | Pressure | Rain* | Wind** | Luminosity | Snow |
|---|---|---|---|---|---|---|---|
| 1777422129 | 12.78° C | 69% | 1014.7 hPa | 0 mm | - | - | - |
| 1777421529 | 12.22° C | 70% | 1014.6 hPa | 0 mm | - | - | - |
| 1777420930 | 11.67° C | 70% | 1014.8 hPa | 0 mm | - | - | - |
| 1777420330 | 11.67° C | 69% | 1015 hPa | 0 mm | - | - | - |
| 1777419729 | 11.67° C | 68% | 1015 hPa | 0 mm | - | - | - |
| 1777419129 | 13.33° C | 65% | 1014.8 hPa | 0 mm | - | - | - |
| 1777417929 | 13.89° C | 62% | 1014.8 hPa | 0 mm | - | - | - |
| 1777417328 | 13.89° C | 62% | 1014.6 hPa | 0 mm | - | - | - |
| 1777416728 | 13.89° C | 61% | 1014.8 hPa | 0 mm | - | - | - |
| 1777416129 | 13.89° C | 60% | 1014.9 hPa | 0 mm | - | - | - |
| 1777415529 | 13.89° C | 60% | 1015 hPa | 0 mm | - | - | - |
| 1777414928 | 13.89° C | 58% | 1014.9 hPa | 0 mm | - | - | - |
| 1777414328 | 13.89° C | 58% | 1015.1 hPa | 0 mm | - | - | - |
| 1777413729 | 13.33° C | 59% | 1015.1 hPa | 0 mm | - | - | - |
| 1777412528 | 13.33° C | 60% | 1015 hPa | 0 mm | - | - | - |
| 1777411929 | 13.33° C | 61% | 1015.2 hPa | 0 mm | - | - | - |
| 1777411329 | 13.33° C | 62% | 1014.9 hPa | 0 mm | - | - | - |
| 1777407728 | 13.33° C | 62% | 1015.1 hPa | 0 mm | - | - | - |
| 1777405929 | 13.33° C | 63% | 1015.4 hPa | 0 mm | - | - | - |
| 1777405330 | 13.33° C | 64% | 1015.3 hPa | 0 mm | - | - | - |
| 1777404731 | 13.33° C | 64% | 1015.5 hPa | 0.25 mm | - | - | - |
| 1777400529 | 10° C | 83% | 1016.5 hPa | 2.54 mm | - | - | - |
| 1777398130 | 10.56° C | 83% | 1016.1 hPa | 1.52 mm | - | - | - |
| 1777397530 | 10.56° C | 82% | 1016.2 hPa | 1.02 mm | - | - | - |
| 1777396928 | 10.56° C | 79% | 1016.1 hPa | 0.51 mm | - | - | - |
* Rain latest hour (hover to see other rain measurements)
** Current wind speed in m/s (hover to see current wind gust speed)